sensor_id;sensor_type;location;lat;lon;timestamp;pressure;altitude;pressure_sealevel;temperature;humidity
13765;BME280;6953;48.810;9.204;2022-12-11T00:01:19;98200.19;;;-0.48;100.00
13765;BME280;6953;48.810;9.204;2022-12-11T00:03:46;98184.13;;;-0.62;100.00
13765;BME280;6953;48.810;9.204;2022-12-11T00:06:13;98184.13;;;-0.62;100.00
13765;BME280;6953;48.810;9.204;2022-12-11T00:08:40;98140.03;;;-0.94;100.00
13765;BME280;6953;48.810;9.204;2022-12-11T00:11:11;98191.03;;;-0.64;100.00
13765;BME280;6953;48.810;9.204;2022-12-11T00:13:37;98182.50;;;-0.67;100.00
13765;BME280;6953;48.810;9.204;2022-12-11T00:16:03;98178.34;;;-0.76;100.00
13765;BME280;6953;48.810;9.204;2022-12-11T00:18:28;98186.91;;;-0.72;100.00
13765;BME280;6953;48.810;9.204;2022-12-11T00:20:54;98191.19;;;-0.73;100.00
13765;BME280;6953;48.810;9.204;2022-12-11T00:23:19;98190.38;;;-0.76;100.00
13765;BME280;6953;48.810;9.204;2022-12-11T00:25:46;98189.53;;;-0.77;100.00
13765;BME280;6953;48.810;9.204;2022-12-11T00:28:14;98167.41;;;-0.88;100.00
13765;BME280;6953;48.810;9.204;2022-12-11T00:30:40;98196.09;;;-0.59;100.00
13765;BME280;6953;48.810;9.204;2022-12-11T00:33:07;98198.19;;;-0.32;100.00
13765;BME280;6953;48.810;9.204;2022-12-11T00:35:37;98186.63;;;-0.10;100.00
13765;BME280;6953;48.810;9.204;2022-12-11T00:38:03;97844.44;;;-1.98;100.00
13765;BME280;6953;48.810;9.204;2022-12-11T00:40:28;98107.09;;;-0.30;100.00
13765;BME280;6953;48.810;9.204;2022-12-11T00:42:54;98177.31;;;0.23;100.00
13765;BME280;6953;48.810;9.204;2022-12-11T00:45:19;98115.19;;;-0.05;100.00
13765;BME280;6953;48.810;9.204;2022-12-11T00:47:45;98162.41;;;0.37;100.00
13765;BME280;6953;48.810;9.204;2022-12-11T00:50:10;98064.50;;;-0.05;100.00
13765;BME280;6953;48.810;9.204;2022-12-11T00:52:36;98210.59;;;0.75;100.00
13765;BME280;6953;48.810;9.204;2022-12-11T00:55:02;98163.97;;;0.82;100.00
13765;BME280;6953;48.810;9.204;2022-12-11T00:57:27;97916.16;;;-0.54;100.00
13765;BME280;6953;48.810;9.204;2022-12-11T00:59:52;98177.97;;;1.08;100.00
13765;BME280;6953;48.810;9.204;2022-12-11T01:02:18;98100.66;;;0.68;100.00
13765;BME280;6953;48.810;9.204;2022-12-11T01:04:43;98152.78;;;0.82;100.00
13765;BME280;6953;48.810;9.204;2022-12-11T01:07:09;98195.91;;;1.14;100.00
13765;BME280;6953;48.810;9.204;2022-12-11T01:09:34;98205.66;;;1.37;100.00
13765;BME280;6953;48.810;9.204;2022-12-11T01:12:17;98196.00;;;1.45;100.00
13765;BME280;6953;48.810;9.204;2022-12-11T01:14:43;98197.63;;;1.49;100.00
13765;BME280;6953;48.810;9.204;2022-12-11T01:17:08;98205.31;;;1.52;100.00
13765;BME280;6953;48.810;9.204;2022-12-11T01:19:34;98145.81;;;1.21;100.00
13765;BME280;6953;48.810;9.204;2022-12-11T01:21:59;98212.00;;;1.59;100.00
13765;BME280;6953;48.810;9.204;2022-12-11T01:24:24;97954.03;;;0.15;100.00
13765;BME280;6953;48.810;9.204;2022-12-11T01:26:50;98154.88;;;1.36;100.00
13765;BME280;6953;48.810;9.204;2022-12-11T01:29:15;98221.06;;;1.75;100.00
13765;BME280;6953;48.810;9.204;2022-12-11T01:31:40;98213.22;;;1.78;100.00
13765;BME280;6953;48.810;9.204;2022-12-11T01:34:06;98219.13;;;1.83;100.00
13765;BME280;6953;48.810;9.204;2022-12-11T01:36:31;98136.72;;;1.39;100.00
13765;BME280;6953;48.810;9.204;2022-12-11T01:38:57;98201.91;;;1.83;100.00
13765;BME280;6953;48.810;9.204;2022-12-11T01:41:22;98185.59;;;1.80;100.00
13765;BME280;6953;48.810;9.204;2022-12-11T01:46:39;97961.72;;;0.51;100.00
13765;BME280;6953;48.810;9.204;2022-12-11T01:49:08;98218.66;;;2.01;100.00
13765;BME280;6953;48.810;9.204;2022-12-11T01:51:40;98218.56;;;2.03;100.00
13765;BME280;6953;48.810;9.204;2022-12-11T01:54:09;98222.94;;;2.02;100.00
13765;BME280;6953;48.810;9.204;2022-12-11T01:56:36;98217.13;;;1.94;100.00
13765;BME280;6953;48.810;9.204;2022-12-11T01:59:04;98096.53;;;1.27;100.00
13765;BME280;6953;48.810;9.204;2022-12-11T02:02:27;98166.06;;;1.70;100.00
13765;BME280;6953;48.810;9.204;2022-12-11T02:04:35;98219.25;;;2.10;100.00
13765;BME280;6953;48.810;9.204;2022-12-11T02:07:01;98225.22;;;2.12;100.00
13765;BME280;6953;48.810;9.204;2022-12-11T02:09:31;98035.16;;;1.05;100.00
13765;BME280;6953;48.810;9.204;2022-12-11T02:12:05;98231.91;;;2.20;100.00
13765;BME280;6953;48.810;9.204;2022-12-11T02:17:57;98249.09;;;2.23;100.00
13765;BME280;6953;48.810;9.204;2022-12-11T02:26:09;98229.81;;;2.33;99.68
13765;BME280;6953;48.810;9.204;2022-12-11T02:33:51;98246.91;;;2.38;99.30
13765;BME280;6953;48.810;9.204;2022-12-11T02:36:20;98192.19;;;2.23;98.96
13765;BME280;6953;48.810;9.204;2022-12-11T02:38:49;98211.75;;;2.31;98.61
13765;BME280;6953;48.810;9.204;2022-12-11T02:41:17;98178.00;;;2.05;98.67
13765;BME280;6953;48.810;9.204;2022-12-11T02:43:45;98039.84;;;1.23;98.20
13765;BME280;6953;48.810;9.204;2022-12-11T02:46:13;97990.94;;;0.85;97.97
13765;BME280;6953;48.810;9.204;2022-12-11T02:48:41;98210.72;;;2.37;98.26
13765;BME280;6953;48.810;9.204;2022-12-11T02:51:07;98234.69;;;2.43;97.20
13765;BME280;6953;48.810;9.204;2022-12-11T02:53:37;98249.28;;;2.46;97.21
13765;BME280;6953;48.810;9.204;2022-12-11T02:56:10;97923.41;;;0.70;96.70
13765;BME280;6953;48.810;9.204;2022-12-11T02:58:41;97966.63;;;0.94;96.82
13765;BME280;6953;48.810;9.204;2022-12-11T03:01:10;97979.28;;;1.02;96.65
13765;BME280;6953;48.810;9.204;2022-12-11T03:03:35;98011.50;;;1.21;96.56
13765;BME280;6953;48.810;9.204;2022-12-11T03:06:01;98222.13;;;2.30;96.45
13765;BME280;6953;48.810;9.204;2022-12-11T03:08:26;97906.97;;;0.72;96.15
13765;BME280;6953;48.810;9.204;2022-12-11T03:10:52;98204.31;;;2.50;96.18
13765;BME280;6953;48.810;9.204;2022-12-11T03:13:19;98211.75;;;2.60;96.25
13765;BME280;6953;48.810;9.204;2022-12-11T03:21:29;98239.25;;;2.64;95.80
13765;BME280;6953;48.810;9.204;2022-12-11T03:24:01;98221.09;;;2.66;95.94
13765;BME280;6953;48.810;9.204;2022-12-11T03:26:29;98220.19;;;2.67;95.19
13765;BME280;6953;48.810;9.204;2022-12-11T03:29:03;98227.19;;;2.65;95.33
13765;BME280;6953;48.810;9.204;2022-12-11T03:31:38;98226.38;;;2.63;95.08
13765;BME280;6953;48.810;9.204;2022-12-11T03:34:15;98242.09;;;2.55;95.60
13765;BME280;6953;48.810;9.204;2022-12-11T03:36:42;97939.88;;;0.96;94.75
13765;BME280;6953;48.810;9.204;2022-12-11T03:39:15;98230.59;;;2.65;95.41
13765;BME280;6953;48.810;9.204;2022-12-11T03:41:44;98219.34;;;2.66;95.43
13765;BME280;6953;48.810;9.204;2022-12-11T03:44:12;98187.31;;;2.41;94.81
13765;BME280;6953;48.810;9.204;2022-12-11T03:46:39;98220.41;;;2.59;94.43
13765;BME280;6953;48.810;9.204;2022-12-11T03:49:12;98231.88;;;2.52;94.83
13765;BME280;6953;48.810;9.204;2022-12-11T03:51:40;98220.78;;;2.47;94.77
13765;BME280;6953;48.810;9.204;2022-12-11T03:54:06;98259.59;;;2.47;94.61
13765;BME280;6953;48.810;9.204;2022-12-11T03:56:33;97987.59;;;0.82;94.81
13765;BME280;6953;48.810;9.204;2022-12-11T03:59:00;98211.97;;;2.24;94.94
13765;BME280;6953;48.810;9.204;2022-12-11T04:01:25;98167.09;;;1.95;95.44
13765;BME280;6953;48.810;9.204;2022-12-11T04:03:51;98216.53;;;2.14;95.54
13765;BME280;6953;48.810;9.204;2022-12-11T04:06:16;98209.78;;;2.09;96.04
13765;BME280;6953;48.810;9.204;2022-12-11T04:08:42;98230.69;;;2.02;96.51
13765;BME280;6953;48.810;9.204;2022-12-11T04:11:08;98177.00;;;1.79;96.02
13765;BME280;6953;48.810;9.204;2022-12-11T04:13:52;98204.44;;;1.85;96.77
13765;BME280;6953;48.810;9.204;2022-12-11T04:16:57;97983.34;;;0.47;97.21
13765;BME280;6953;48.810;9.204;2022-12-11T04:19:23;98179.97;;;1.64;97.61
13765;BME280;6953;48.810;9.204;2022-12-11T04:22:12;98191.78;;;1.74;97.71
13765;BME280;6953;48.810;9.204;2022-12-11T04:24:56;98187.44;;;1.75;97.83
13765;BME280;6953;48.810;9.204;2022-12-11T04:27:22;98187.44;;;1.75;98.05
13765;BME280;6953;48.810;9.204;2022-12-11T04:30:10;98186.50;;;1.79;97.67
13765;BME280;6953;48.810;9.204;2022-12-11T04:32:35;98060.19;;;1.03;98.08
13765;BME280;6953;48.810;9.204;2022-12-11T04:35:01;97910.03;;;0.21;97.69
13765;BME280;6953;48.810;9.204;2022-12-11T04:37:27;97920.19;;;0.28;98.01
13765;BME280;6953;48.810;9.204;2022-12-11T04:39:52;98166.81;;;1.73;97.83
13765;BME280;6953;48.810;9.204;2022-12-11T04:42:18;97921.97;;;0.26;97.24
13765;BME280;6953;48.810;9.204;2022-12-11T04:44:43;98170.22;;;1.75;97.11
13765;BME280;6953;48.810;9.204;2022-12-11T04:47:09;98190.94;;;1.74;96.98
13765;BME280;6953;48.810;9.204;2022-12-11T04:49:34;97888.03;;;0.09;96.44
13765;BME280;6953;48.810;9.204;2022-12-11T04:51:59;98134.13;;;1.39;95.73
13765;BME280;6953;48.810;9.204;2022-12-11T04:54:25;98191.03;;;1.71;95.19
13765;BME280;6953;48.810;9.204;2022-12-11T04:56:50;98157.38;;;1.72;94.21
13765;BME280;6953;48.810;9.204;2022-12-11T04:59:15;98162.69;;;1.66;93.27
13765;BME280;6953;48.810;9.204;2022-12-11T05:01:41;98176.47;;;1.67;92.39
13765;BME280;6953;48.810;9.204;2022-12-11T05:04:06;98184.25;;;1.65;92.36
13765;BME280;6953;48.810;9.204;2022-12-11T05:06:32;98199.66;;;1.70;92.61
13765;BME280;6953;48.810;9.204;2022-12-11T05:08:57;98174.59;;;1.73;92.28
13765;BME280;6953;48.810;9.204;2022-12-11T05:11:22;98160.03;;;1.69;91.82
13765;BME280;6953;48.810;9.204;2022-12-11T05:13:48;98177.91;;;1.78;91.54
13765;BME280;6953;48.810;9.204;2022-12-11T05:16:15;98184.69;;;1.82;91.36
13765;BME280;6953;48.810;9.204;2022-12-11T05:18:40;98174.38;;;1.81;91.61
13765;BME280;6953;48.810;9.204;2022-12-11T05:21:09;98168.38;;;1.79;90.95
13765;BME280;6953;48.810;9.204;2022-12-11T05:23:35;98179.50;;;1.50;91.49
13765;BME280;6953;48.810;9.204;2022-12-11T05:26:15;98198.53;;;1.46;91.43
13765;BME280;6953;48.810;9.204;2022-12-11T05:28:41;98071.75;;;0.54;92.02
13765;BME280;6953;48.810;9.204;2022-12-11T05:31:14;98183.56;;;0.91;93.26
13765;BME280;6953;48.810;9.204;2022-12-11T05:33:39;98192.72;;;0.66;94.19
13765;BME280;6953;48.810;9.204;2022-12-11T05:36:06;98170.91;;;0.41;95.05
13765;BME280;6953;48.810;9.204;2022-12-11T05:38:32;98168.00;;;0.18;96.71
13765;BME280;6953;48.810;9.204;2022-12-11T05:41:00;98176.56;;;0.18;97.24
13765;BME280;6953;48.810;9.204;2022-12-11T05:43:26;98064.75;;;-0.59;97.59
13765;BME280;6953;48.810;9.204;2022-12-11T05:45:52;98187.75;;;-0.25;98.30
13765;BME280;6953;48.810;9.204;2022-12-11T05:48:18;98200.50;;;-0.19;99.95
13765;BME280;6953;48.810;9.204;2022-12-11T05:50:44;98177.44;;;-0.25;100.00
13765;BME280;6953;48.810;9.204;2022-12-11T05:53:09;98203.34;;;-0.32;100.00
13765;BME280;6953;48.810;9.204;2022-12-11T05:55:35;98068.06;;;-0.98;100.00
13765;BME280;6953;48.810;9.204;2022-12-11T05:58:01;98152.84;;;-0.42;100.00
13765;BME280;6953;48.810;9.204;2022-12-11T06:00:26;98153.78;;;-0.45;100.00
13765;BME280;6953;48.810;9.204;2022-12-11T06:02:51;98108.94;;;-0.80;100.00
13765;BME280;6953;48.810;9.204;2022-12-11T06:05:17;98201.06;;;-0.49;100.00
13765;BME280;6953;48.810;9.204;2022-12-11T06:07:42;98170.31;;;-0.58;100.00
13765;BME280;6953;48.810;9.204;2022-12-11T06:10:08;98170.34;;;-0.61;100.00
13765;BME280;6953;48.810;9.204;2022-12-11T06:12:34;98173.00;;;-0.64;100.00
13765;BME280;6953;48.810;9.204;2022-12-11T06:14:59;97897.09;;;-2.24;100.00
13765;BME280;6953;48.810;9.204;2022-12-11T06:17:24;98166.34;;;-0.75;100.00
13765;BME280;6953;48.810;9.204;2022-12-11T06:19:50;98159.59;;;-0.82;100.00
13765;BME280;6953;48.810;9.204;2022-12-11T06:22:15;98206.09;;;-0.93;100.00
13765;BME280;6953;48.810;9.204;2022-12-11T06:24:40;98164.16;;;-0.99;100.00
13765;BME280;6953;48.810;9.204;2022-12-11T06:27:06;98157.38;;;-1.03;100.00
13765;BME280;6953;48.810;9.204;2022-12-11T06:29:31;98144.63;;;-1.12;100.00
13765;BME280;6953;48.810;9.204;2022-12-11T06:31:56;98132.75;;;-1.20;100.00
13765;BME280;6953;48.810;9.204;2022-12-11T06:34:22;98107.28;;;-1.35;100.00
13765;BME280;6953;48.810;9.204;2022-12-11T06:36:47;98150.63;;;-1.11;100.00
13765;BME280;6953;48.810;9.204;2022-12-11T06:39:13;98151.47;;;-1.11;100.00
13765;BME280;6953;48.810;9.204;2022-12-11T06:41:38;98153.13;;;-1.05;100.00
13765;BME280;6953;48.810;9.204;2022-12-11T06:44:03;98152.19;;;-1.02;100.00
13765;BME280;6953;48.810;9.204;2022-12-11T06:46:28;98153.84;;;-0.98;100.00
13765;BME280;6953;48.810;9.204;2022-12-11T06:48:54;98140.09;;;-0.97;100.00
13765;BME280;6953;48.810;9.204;2022-12-11T06:51:21;98137.53;;;-0.97;100.00
13765;BME280;6953;48.810;9.204;2022-12-11T06:53:51;98149.25;;;-0.81;100.00
13765;BME280;6953;48.810;9.204;2022-12-11T06:56:17;97834.22;;;-2.53;100.00
13765;BME280;6953;48.810;9.204;2022-12-11T06:58:42;98195.28;;;-0.61;100.00
13765;BME280;6953;48.810;9.204;2022-12-11T07:01:25;98173.50;;;-0.45;100.00
13765;BME280;6953;48.810;9.204;2022-12-11T07:03:56;98090.97;;;-0.83;100.00
13765;BME280;6953;48.810;9.204;2022-12-11T07:06:22;98180.22;;;-0.37;100.00
13765;BME280;6953;48.810;9.204;2022-12-11T07:08:48;98168.25;;;-0.39;100.00
13765;BME280;6953;48.810;9.204;2022-12-11T07:11:15;98160.44;;;-0.33;100.00
13765;BME280;6953;48.810;9.204;2022-12-11T07:13:41;98178.03;;;-0.11;100.00
13765;BME280;6953;48.810;9.204;2022-12-11T07:16:07;98185.53;;;-0.01;100.00
13765;BME280;6953;48.810;9.204;2022-12-11T07:18:37;98171.72;;;0.02;100.00
13765;BME280;6953;48.810;9.204;2022-12-11T07:21:03;98187.13;;;0.06;100.00
13765;BME280;6953;48.810;9.204;2022-12-11T07:23:29;97980.47;;;-0.94;100.00
13765;BME280;6953;48.810;9.204;2022-12-11T07:25:55;98105.81;;;-0.09;100.00
13765;BME280;6953;48.810;9.204;2022-12-11T07:28:21;98209.72;;;0.36;100.00
13765;BME280;6953;48.810;9.204;2022-12-11T07:30:47;98147.84;;;0.35;100.00
13765;BME280;6953;48.810;9.204;2022-12-11T07:33:12;98088.25;;;0.09;100.00
13765;BME280;6953;48.810;9.204;2022-12-11T07:35:38;97999.19;;;-0.43;100.00
13765;BME280;6953;48.810;9.204;2022-12-11T07:38:03;98159.16;;;0.67;100.00
13765;BME280;6953;48.810;9.204;2022-12-11T07:40:28;98181.03;;;0.88;100.00
13765;BME280;6953;48.810;9.204;2022-12-11T07:42:54;98235.06;;;0.97;100.00
13765;BME280;6953;48.810;9.204;2022-12-11T07:45:19;98208.06;;;1.09;100.00
13765;BME280;6953;48.810;9.204;2022-12-11T07:47:45;98186.56;;;1.09;100.00
13765;BME280;6953;48.810;9.204;2022-12-11T07:50:10;98180.03;;;1.29;100.00
13765;BME280;6953;48.810;9.204;2022-12-11T07:52:35;98114.97;;;1.14;100.00
13765;BME280;6953;48.810;9.204;2022-12-11T07:55:01;98113.00;;;1.23;100.00
13765;BME280;6953;48.810;9.204;2022-12-11T07:57:27;98181.38;;;1.77;100.00
13765;BME280;6953;48.810;9.204;2022-12-11T07:59:52;98174.94;;;1.92;100.00
13765;BME280;6953;48.810;9.204;2022-12-11T08:02:18;98088.88;;;1.56;100.00
13765;BME280;6953;48.810;9.204;2022-12-11T08:04:43;98179.09;;;2.27;100.00
13765;BME280;6953;48.810;9.204;2022-12-11T08:07:08;98178.63;;;2.44;100.00
13765;BME280;6953;48.810;9.204;2022-12-11T08:09:34;98115.47;;;2.20;99.94
13765;BME280;6953;48.810;9.204;2022-12-11T08:11:59;98176.00;;;2.73;99.15
13765;BME280;6953;48.810;9.204;2022-12-11T08:14:25;98168.56;;;2.90;97.97
13765;BME280;6953;48.810;9.204;2022-12-11T08:16:50;98173.16;;;3.07;96.89
13765;BME280;6953;48.810;9.204;2022-12-11T08:19:15;98203.41;;;3.34;96.66
13765;BME280;6953;48.810;9.204;2022-12-11T08:21:42;98173.00;;;3.64;96.05
13765;BME280;6953;48.810;9.204;2022-12-11T08:24:08;98103.72;;;3.43;94.89
13765;BME280;6953;48.810;9.204;2022-12-11T08:26:34;97929.22;;;2.46;93.60
13765;BME280;6953;48.810;9.204;2022-12-11T08:29:00;97993.19;;;2.93;92.80
13765;BME280;6953;48.810;9.204;2022-12-11T08:31:26;98159.41;;;3.82;91.71
13765;BME280;6953;48.810;9.204;2022-12-11T08:33:54;98173.28;;;3.81;91.74
13765;BME280;6953;48.810;9.204;2022-12-11T08:36:20;98176.34;;;3.67;91.01
13765;BME280;6953;48.810;9.204;2022-12-11T08:38:47;97981.00;;;2.45;90.60
13765;BME280;6953;48.810;9.204;2022-12-11T08:41:15;98175.22;;;3.50;91.03
13765;BME280;6953;48.810;9.204;2022-12-11T08:43:40;97911.47;;;1.83;90.54
13765;BME280;6953;48.810;9.204;2022-12-11T08:46:07;98158.84;;;3.23;90.30
13765;BME280;6953;48.810;9.204;2022-12-11T08:48:34;98154.00;;;3.13;90.11
13765;BME280;6953;48.810;9.204;2022-12-11T08:51:00;98103.25;;;2.80;89.87
13765;BME280;6953;48.810;9.204;2022-12-11T08:53:30;98166.91;;;3.14;90.69
13765;BME280;6953;48.810;9.204;2022-12-11T08:56:08;98181.41;;;3.20;90.33
13765;BME280;6953;48.810;9.204;2022-12-11T08:58:34;98178.00;;;3.18;90.46
13765;BME280;6953;48.810;9.204;2022-12-11T09:01:05;98204.78;;;3.18;90.15
13765;BME280;6953;48.810;9.204;2022-12-11T09:03:30;98164.50;;;3.08;90.22
13765;BME280;6953;48.810;9.204;2022-12-11T09:05:56;97965.50;;;1.63;90.60
13765;BME280;6953;48.810;9.204;2022-12-11T09:08:21;98168.78;;;3.09;90.75
13765;BME280;6953;48.810;9.204;2022-12-11T09:10:46;97918.25;;;1.58;90.75
13765;BME280;6953;48.810;9.204;2022-12-11T09:13:12;97924.22;;;1.60;91.33
13765;BME280;6953;48.810;9.204;2022-12-11T09:15:39;98197.16;;;3.14;91.59
13765;BME280;6953;48.810;9.204;2022-12-11T09:18:05;98020.41;;;2.27;91.50
13765;BME280;6953;48.810;9.204;2022-12-11T09:20:30;98106.22;;;2.96;91.53
13765;BME280;6953;48.810;9.204;2022-12-11T09:22:55;98161.88;;;3.36;92.04
13765;BME280;6953;48.810;9.204;2022-12-11T09:25:21;98168.00;;;3.33;92.17
13765;BME280;6953;48.810;9.204;2022-12-11T09:27:46;98128.03;;;3.14;92.96
13765;BME280;6953;48.810;9.204;2022-12-11T09:30:12;98155.59;;;3.43;92.75
13765;BME280;6953;48.810;9.204;2022-12-11T09:32:37;98133.91;;;3.45;92.62
13765;BME280;6953;48.810;9.204;2022-12-11T09:35:04;98167.31;;;3.79;91.44
13765;BME280;6953;48.810;9.204;2022-12-11T09:37:29;97922.94;;;2.53;91.72
13765;BME280;6953;48.810;9.204;2022-12-11T09:39:55;97923.19;;;2.95;89.92
13765;BME280;6953;48.810;9.204;2022-12-11T09:42:30;98141.63;;;4.41;89.19
13765;BME280;6953;48.810;9.204;2022-12-11T09:45:01;98218.34;;;4.96;87.93
13765;BME280;6953;48.810;9.204;2022-12-11T09:47:35;98023.78;;;4.67;85.86
13765;BME280;6953;48.810;9.204;2022-12-11T09:50:12;98137.59;;;6.41;80.09
13765;BME280;6953;48.810;9.204;2022-12-11T09:52:46;98141.66;;;7.54;74.41
13765;BME280;6953;48.810;9.204;2022-12-11T09:55:20;98137.28;;;8.22;69.94
13765;BME280;6953;48.810;9.204;2022-12-11T10:00:25;98140.53;;;7.93;71.29
13765;BME280;6953;48.810;9.204;2022-12-11T10:05:54;97925.59;;;6.08;72.46
13765;BME280;6953;48.810;9.204;2022-12-11T10:18:38;97963.28;;;5.05;75.83
13765;BME280;6953;48.810;9.204;2022-12-11T10:21:05;97911.56;;;4.79;76.33
13765;BME280;6953;48.810;9.204;2022-12-11T10:23:57;98068.84;;;5.88;76.69
13765;BME280;6953;48.810;9.204;2022-12-11T10:26:23;97940.13;;;5.18;76.25
13765;BME280;6953;48.810;9.204;2022-12-11T10:28:49;97887.06;;;4.64;76.28
13765;BME280;6953;48.810;9.204;2022-12-11T10:31:18;98117.78;;;6.18;77.29
13765;BME280;6953;48.810;9.204;2022-12-11T10:36:37;97856.66;;;4.86;76.24
13765;BME280;6953;48.810;9.204;2022-12-11T10:39:18;98105.19;;;6.46;76.37
13765;BME280;6953;48.810;9.204;2022-12-11T10:41:46;98096.31;;;6.32;75.52
13765;BME280;6953;48.810;9.204;2022-12-11T10:44:23;98106.84;;;6.11;76.39
13765;BME280;6953;48.810;9.204;2022-12-11T10:49:32;98102.44;;;6.13;76.16
13765;BME280;6953;48.810;9.204;2022-12-11T10:51:58;98102.88;;;6.22;75.68
13765;BME280;6953;48.810;9.204;2022-12-11T10:56:56;98077.03;;;6.18;74.99
13765;BME280;6953;48.810;9.204;2022-12-11T10:59:28;98078.81;;;6.35;74.44
13765;BME280;6953;48.810;9.204;2022-12-11T11:01:56;98087.69;;;6.50;75.48
13765;BME280;6953;48.810;9.204;2022-12-11T11:04:29;98072.53;;;6.58;74.61
13765;BME280;6953;48.810;9.204;2022-12-11T11:07:19;98078.28;;;6.64;73.70
13765;BME280;6953;48.810;9.204;2022-12-11T11:09:45;98113.56;;;6.53;73.69
13765;BME280;6953;48.810;9.204;2022-12-11T11:12:23;97851.19;;;5.12;74.03
13765;BME280;6953;48.810;9.204;2022-12-11T11:15:04;97818.78;;;5.01;72.97
13765;BME280;6953;48.810;9.204;2022-12-11T11:17:31;97848.94;;;5.23;72.34
13765;BME280;6953;48.810;9.204;2022-12-11T11:19:59;98007.28;;;6.24;72.44
13765;BME280;6953;48.810;9.204;2022-12-11T11:22:30;97948.06;;;5.72;73.01
13765;BME280;6953;48.810;9.204;2022-12-11T11:24:57;98047.41;;;6.38;73.49
13765;BME280;6953;48.810;9.204;2022-12-11T11:29:53;98077.63;;;6.78;72.46
13765;BME280;6953;48.810;9.204;2022-12-11T11:32:22;98043.88;;;6.75;72.18
13765;BME280;6953;48.810;9.204;2022-12-11T11:34:49;98095.75;;;6.81;71.80
13765;BME280;6953;48.810;9.204;2022-12-11T11:37:40;98073.53;;;6.91;72.12
13765;BME280;6953;48.810;9.204;2022-12-11T11:50:45;98051.19;;;6.85;70.15
13765;BME280;6953;48.810;9.204;2022-12-11T11:53:30;98073.44;;;6.75;70.93
13765;BME280;6953;48.810;9.204;2022-12-11T11:58:58;98065.81;;;7.06;69.60
13765;BME280;6953;48.810;9.204;2022-12-11T12:01:20;98025.25;;;6.65;69.80
13765;BME280;6953;48.810;9.204;2022-12-11T12:03:47;98047.22;;;6.60;70.43
13765;BME280;6953;48.810;9.204;2022-12-11T12:12:01;98051.63;;;6.22;71.29
13765;BME280;6953;48.810;9.204;2022-12-11T12:14:37;97978.94;;;5.81;70.67
13765;BME280;6953;48.810;9.204;2022-12-11T12:25:23;98055.28;;;6.00;72.29
13765;BME280;6953;48.810;9.204;2022-12-11T12:36:31;98033.97;;;5.12;75.90
13765;BME280;6953;48.810;9.204;2022-12-11T12:39:02;98062.63;;;5.11;76.46
13765;BME280;6953;48.810;9.204;2022-12-11T12:49:41;98030.28;;;5.76;74.96
13765;BME280;6953;48.810;9.204;2022-12-11T12:52:33;98031.31;;;5.92;74.14
13765;BME280;6953;48.810;9.204;2022-12-11T12:57:46;98020.50;;;6.01;74.15
13765;BME280;6953;48.810;9.204;2022-12-11T13:00:12;98013.31;;;5.88;74.52
13765;BME280;6953;48.810;9.204;2022-12-11T13:02:47;97910.84;;;5.15;75.21
13765;BME280;6953;48.810;9.204;2022-12-11T13:05:32;98026.88;;;5.76;75.59
13765;BME280;6953;48.810;9.204;2022-12-11T13:08:02;98060.16;;;5.68;75.80
13765;BME280;6953;48.810;9.204;2022-12-11T13:10:30;97791.06;;;4.03;75.93
13765;BME280;6953;48.810;9.204;2022-12-11T13:12:56;97900.44;;;4.35;77.21
13765;BME280;6953;48.810;9.204;2022-12-11T13:18:05;97983.03;;;4.26;78.77
13765;BME280;6953;48.810;9.204;2022-12-11T13:20:51;97763.78;;;2.65;80.21
13765;BME280;6953;48.810;9.204;2022-12-11T13:23:19;98059.66;;;3.90;82.08
13765;BME280;6953;48.810;9.204;2022-12-11T13:25:55;98032.28;;;3.59;82.75
13765;BME280;6953;48.810;9.204;2022-12-11T13:28:44;98031.59;;;3.31;83.78
13765;BME280;6953;48.810;9.204;2022-12-11T13:33:45;98039.16;;;2.87;86.24
13765;BME280;6953;48.810;9.204;2022-12-11T13:38:38;97880.03;;;1.95;87.06
13765;BME280;6953;48.810;9.204;2022-12-11T13:41:11;97781.94;;;1.64;86.77
13765;BME280;6953;48.810;9.204;2022-12-11T13:43:40;98063.38;;;3.36;85.57
13765;BME280;6953;48.810;9.204;2022-12-11T13:46:10;98039.88;;;3.65;84.96
13765;BME280;6953;48.810;9.204;2022-12-11T13:48:50;98031.06;;;3.69;83.54
13765;BME280;6953;48.810;9.204;2022-12-11T13:51:20;98077.81;;;3.90;83.02
13765;BME280;6953;48.810;9.204;2022-12-11T13:53:46;98044.56;;;4.01;83.17
13765;BME280;6953;48.810;9.204;2022-12-11T13:56:17;98011.81;;;3.76;82.40
13765;BME280;6953;48.810;9.204;2022-12-11T13:58:42;98052.88;;;4.09;83.03
13765;BME280;6953;48.810;9.204;2022-12-11T14:01:18;98048.75;;;4.05;82.02
13765;BME280;6953;48.810;9.204;2022-12-11T14:04:01;98054.59;;;3.87;82.65
13765;BME280;6953;48.810;9.204;2022-12-11T14:06:27;97784.00;;;2.05;82.83
13765;BME280;6953;48.810;9.204;2022-12-11T14:08:57;98047.94;;;3.33;83.85
13765;BME280;6953;48.810;9.204;2022-12-11T14:11:26;98053.94;;;3.09;84.52
13765;BME280;6953;48.810;9.204;2022-12-11T14:13:54;98052.16;;;2.85;85.54
13765;BME280;6953;48.810;9.204;2022-12-11T14:16:23;97968.31;;;2.11;86.59
13765;BME280;6953;48.810;9.204;2022-12-11T14:18:50;98053.53;;;2.43;87.04
13765;BME280;6953;48.810;9.204;2022-12-11T14:21:21;97820.78;;;1.06;87.86
13765;BME280;6953;48.810;9.204;2022-12-11T14:23:55;98097.47;;;2.45;88.12
13765;BME280;6953;48.810;9.204;2022-12-11T14:26:48;98052.44;;;2.50;88.14
13765;BME280;6953;48.810;9.204;2022-12-11T14:29:25;98015.09;;;2.31;88.04
13765;BME280;6953;48.810;9.204;2022-12-11T14:31:51;98066.78;;;2.60;88.39
13765;BME280;6953;48.810;9.204;2022-12-11T14:34:39;98065.72;;;2.67;88.39
13765;BME280;6953;48.810;9.204;2022-12-11T14:37:09;98069.03;;;2.71;87.87
13765;BME280;6953;48.810;9.204;2022-12-11T14:39:55;98069.00;;;2.72;87.84
13765;BME280;6953;48.810;9.204;2022-12-11T14:42:32;97921.19;;;1.75;88.34
13765;BME280;6953;48.810;9.204;2022-12-11T14:45:11;98088.81;;;2.46;88.55
13765;BME280;6953;48.810;9.204;2022-12-11T14:47:42;97944.56;;;1.43;89.52
13765;BME280;6953;48.810;9.204;2022-12-11T14:50:21;98019.22;;;1.82;89.96
13765;BME280;6953;48.810;9.204;2022-12-11T14:52:50;98101.59;;;1.94;90.19
13765;BME280;6953;48.810;9.204;2022-12-11T14:55:26;97999.50;;;1.49;90.25
13765;BME280;6953;48.810;9.204;2022-12-11T14:57:56;97777.06;;;0.12;90.58
13765;BME280;6953;48.810;9.204;2022-12-11T15:00:29;98083.94;;;1.79;90.86
13765;BME280;6953;48.810;9.204;2022-12-11T15:05:53;97891.69;;;0.33;91.60
13765;BME280;6953;48.810;9.204;2022-12-11T15:08:30;97926.69;;;0.43;92.41
13765;BME280;6953;48.810;9.204;2022-12-11T15:13:26;98095.19;;;1.14;94.58